TimeEDT,TemperatureF,Dew PointF,Humidity,Sea Level PressureIn,VisibilityMPH,Wind Direction,Wind SpeedMPH,Gust SpeedMPH,PrecipitationIn,Events,Conditions,WindDirDegrees,DateUTC
12:08 AM,68.0,50.0,52,30.16,10.0,Calm,Calm,-,N/A,,Clear,0,2013-05-18 04:08:00
12:28 AM,68.0,48.2,49,30.16,10.0,NNW,5.8,-,N/A,,Clear,330,2013-05-18 04:28:00
12:48 AM,68.0,46.4,46,30.16,10.0,North,4.6,-,N/A,,Clear,360,2013-05-18 04:48:00
1:08 AM,68.0,46.4,46,30.16,10.0,North,5.8,-,N/A,,Clear,360,2013-05-18 05:08:00
1:28 AM,66.2,46.4,49,30.16,10.0,North,3.5,-,N/A,,Clear,350,2013-05-18 05:28:00
1:48 AM,66.2,44.6,46,30.16,10.0,North,3.5,-,N/A,,Clear,350,2013-05-18 05:48:00
2:08 AM,66.2,44.6,46,30.16,10.0,Calm,Calm,-,N/A,,Clear,0,2013-05-18 06:08:00
2:28 AM,64.4,44.6,49,30.16,10.0,NW,3.5,-,N/A,,Clear,310,2013-05-18 06:28:00
2:48 AM,64.4,46.4,52,30.16,10.0,Calm,Calm,-,N/A,,Clear,0,2013-05-18 06:48:00
3:08 AM,64.4,46.4,52,30.16,10.0,NNW,3.5,-,N/A,,Clear,330,2013-05-18 07:08:00
3:29 AM,62.6,46.4,55,30.16,10.0,NNW,3.5,-,N/A,,Clear,340,2013-05-18 07:29:00
3:49 AM,62.6,48.2,59,30.17,10.0,NNW,4.6,-,N/A,,Clear,340,2013-05-18 07:49:00
4:09 AM,60.8,50.0,68,30.17,10.0,NNW,4.6,-,N/A,,Clear,340,2013-05-18 08:09:00
4:29 AM,60.8,50.0,68,30.18,10.0,North,4.6,-,N/A,,Clear,350,2013-05-18 08:29:00
4:49 AM,59.0,50.0,72,30.18,10.0,North,4.6,-,N/A,,Clear,350,2013-05-18 08:49:00
5:09 AM,59.0,50.0,72,30.18,10.0,North,3.5,-,N/A,,Clear,350,2013-05-18 09:09:00
5:29 AM,59.0,48.2,67,30.18,10.0,North,3.5,-,N/A,,Mostly Cloudy,350,2013-05-18 09:29:00
5:49 AM,59.0,48.2,67,30.18,10.0,NNW,5.8,-,N/A,,Scattered Clouds,340,2013-05-18 09:49:00
6:09 AM,59.0,48.2,67,30.19,10.0,NNW,4.6,-,N/A,,Clear,340,2013-05-18 10:09:00
6:29 AM,59.0,46.4,63,30.20,10.0,North,4.6,-,N/A,,Mostly Cloudy,350,2013-05-18 10:29:00
6:49 AM,59.0,46.4,63,30.20,10.0,NNW,4.6,-,N/A,,Overcast,340,2013-05-18 10:49:00
7:09 AM,60.8,46.4,59,30.20,10.0,North,4.6,-,N/A,,Scattered Clouds,350,2013-05-18 11:09:00
7:29 AM,60.8,46.4,59,30.21,10.0,North,4.6,-,N/A,,Clear,350,2013-05-18 11:29:00
7:49 AM,62.6,46.4,55,30.22,10.0,NNW,4.6,-,N/A,,Clear,340,2013-05-18 11:49:00
8:09 AM,62.6,46.4,55,30.22,10.0,NNW,3.5,-,N/A,,Clear,340,2013-05-18 12:09:00
8:29 AM,64.4,46.4,52,30.22,10.0,North,3.5,-,N/A,,Scattered Clouds,350,2013-05-18 12:29:00
8:49 AM,64.4,48.2,56,30.22,10.0,Calm,Calm,-,N/A,,Mostly Cloudy,0,2013-05-18 12:49:00
9:09 AM,64.4,50.0,59,30.23,10.0,NNE,3.5,-,N/A,,Overcast,20,2013-05-18 13:09:00
9:29 AM,64.4,50.0,59,30.23,10.0,Calm,Calm,-,N/A,,Overcast,0,2013-05-18 13:29:00
9:49 AM,64.4,50.0,59,30.23,10.0,Calm,Calm,-,N/A,,Overcast,0,2013-05-18 13:49:00
10:09 AM,66.2,50.0,56,30.22,10.0,Calm,Calm,-,N/A,,Overcast,0,2013-05-18 14:09:00
10:29 AM,66.2,50.0,56,30.24,10.0,Calm,Calm,-,N/A,,Overcast,0,2013-05-18 14:29:00
10:49 AM,66.2,50.0,56,30.23,10.0,Calm,Calm,-,N/A,,Overcast,0,2013-05-18 14:49:00
11:09 AM,66.2,51.8,60,30.24,10.0,Calm,Calm,-,N/A,,Overcast,0,2013-05-18 15:09:00
11:30 AM,68.0,51.8,56,30.22,10.0,SSW,3.5,-,N/A,,Overcast,200,2013-05-18 15:30:00
11:50 AM,68.0,51.8,56,30.22,10.0,Calm,Calm,-,N/A,,Overcast,0,2013-05-18 15:50:00
12:10 PM,68.0,53.6,60,30.22,10.0,Calm,Calm,-,N/A,,Overcast,0,2013-05-18 16:10:00
12:30 PM,69.8,53.6,56,30.21,10.0,Calm,Calm,-,N/A,,Mostly Cloudy,0,2013-05-18 16:30:00
12:50 PM,71.6,53.6,53,30.20,10.0,Calm,Calm,-,N/A,,Overcast,0,2013-05-18 16:50:00
1:10 PM,71.6,55.4,57,30.19,10.0,East,3.5,-,N/A,,Overcast,90,2013-05-18 17:10:00
1:30 PM,69.8,55.4,60,30.20,10.0,ESE,4.6,-,N/A,,Overcast,110,2013-05-18 17:30:00
1:50 PM,69.8,57.2,64,30.20,10.0,East,6.9,-,N/A,,Overcast,100,2013-05-18 17:50:00
2:10 PM,69.8,57.2,64,30.19,10.0,SE,4.6,-,N/A,,Overcast,130,2013-05-18 18:10:00
2:30 PM,69.8,59.0,68,30.19,10.0,East,4.6,-,N/A,,Overcast,90,2013-05-18 18:30:00
2:50 PM,69.8,59.0,68,30.18,10.0,East,5.8,-,N/A,,Overcast,100,2013-05-18 18:50:00
3:10 PM,69.8,59.0,68,30.17,10.0,SE,4.6,-,N/A,,Overcast,130,2013-05-18 19:10:00
3:30 PM,69.8,59.0,68,30.17,10.0,East,8.1,-,N/A,,Overcast,100,2013-05-18 19:30:00
3:50 PM,69.8,59.0,68,30.16,10.0,East,5.8,-,N/A,,Overcast,80,2013-05-18 19:50:00
4:10 PM,69.8,59.0,68,30.16,10.0,SE,6.9,-,N/A,,Mostly Cloudy,140,2013-05-18 20:10:00
4:30 PM,69.8,59.0,68,30.17,10.0,ESE,5.8,-,N/A,,Overcast,110,2013-05-18 20:30:00
4:50 PM,69.8,59.0,68,30.17,10.0,ESE,4.6,-,N/A,,Overcast,110,2013-05-18 20:50:00
5:10 PM,69.8,59.0,68,30.16,10.0,East,4.6,-,N/A,,Overcast,100,2013-05-18 21:10:00
5:30 PM,68.0,59.0,73,30.17,10.0,ENE,3.5,-,N/A,,Overcast,60,2013-05-18 21:30:00
5:50 PM,68.0,59.0,73,30.17,10.0,NNE,5.8,-,N/A,,Overcast,30,2013-05-18 21:50:00
6:10 PM,66.2,59.0,78,30.17,10.0,NE,3.5,-,N/A,,Overcast,40,2013-05-18 22:10:00
6:30 PM,66.2,59.0,78,30.18,10.0,NE,5.8,-,N/A,,Overcast,40,2013-05-18 22:30:00
6:50 PM,64.4,59.0,83,30.18,10.0,NE,5.8,-,N/A,,Overcast,50,2013-05-18 22:50:00
7:10 PM,64.4,57.2,77,30.18,10.0,NNE,4.6,-,N/A,,Overcast,30,2013-05-18 23:10:00
7:30 PM,64.4,57.2,77,30.19,10.0,NNE,8.1,-,N/A,,Overcast,30,2013-05-18 23:30:00
7:50 PM,62.6,57.2,82,30.19,10.0,NE,5.8,-,N/A,,Overcast,40,2013-05-18 23:50:00
8:11 PM,62.6,57.2,82,30.20,10.0,NE,8.1,-,N/A,,Overcast,50,2013-05-19 00:11:00
8:31 PM,62.6,57.2,82,30.20,10.0,NE,8.1,-,N/A,,Overcast,40,2013-05-19 00:31:00
8:51 PM,62.6,57.2,82,30.20,10.0,ENE,4.6,-,N/A,,Overcast,60,2013-05-19 00:51:00
9:11 PM,62.6,57.2,82,30.21,10.0,NE,3.5,-,N/A,,Overcast,40,2013-05-19 01:11:00
9:31 PM,62.6,57.2,82,30.22,10.0,NNE,4.6,-,N/A,,Overcast,30,2013-05-19 01:31:00
9:51 PM,60.8,57.2,88,30.23,10.0,NNE,3.5,-,N/A,,Overcast,30,2013-05-19 01:51:00
10:11 PM,60.8,57.2,88,30.23,10.0,NE,4.6,-,N/A,,Overcast,40,2013-05-19 02:11:00
10:31 PM,60.8,57.2,88,30.23,10.0,NE,5.8,-,N/A,,Overcast,50,2013-05-19 02:31:00
10:51 PM,60.8,55.4,82,30.23,10.0,Calm,Calm,-,N/A,,Overcast,0,2013-05-19 02:51:00
11:11 PM,60.8,55.4,82,30.23,10.0,East,4.6,-,N/A,,Overcast,80,2013-05-19 03:11:00
11:31 PM,60.8,55.4,82,30.23,10.0,SE,4.6,-,N/A,,Overcast,140,2013-05-19 03:31:00
11:51 PM,60.8,55.4,82,30.23,10.0,ESE,4.6,-,N/A,,Overcast,120,2013-05-19 03:51:00